createdAt,value
2018-01-15T00:00:01.106Z,1021.29
2018-01-15T00:01:01.123Z,1021.26
2018-01-15T00:02:01.135Z,1021.22
2018-01-15T00:03:01.138Z,1021.24
2018-01-15T00:04:01.157Z,1021.24
2018-01-15T00:05:01.162Z,1021.21
2018-01-15T00:06:01.173Z,1021.18
2018-01-15T00:07:01.186Z,1021.2
2018-01-15T00:09:01.207Z,1021.15
2018-01-15T00:10:01.219Z,1021.15
2018-01-15T00:11:01.229Z,1021.11
2018-01-15T00:12:01.240Z,1021.07
2018-01-15T00:13:01.259Z,1021.07
2018-01-15T00:14:01.269Z,1021.07
2018-01-15T00:15:01.274Z,1021.05
2018-01-15T00:16:01.285Z,1021.04
2018-01-15T00:17:01.296Z,1021.07
2018-01-15T00:18:01.307Z,1021.08
2018-01-15T00:19:01.319Z,1021.09
2018-01-15T00:20:01.338Z,1021.08
2018-01-15T00:21:01.348Z,1021.14
2018-01-15T00:22:01.358Z,1021.08
2018-01-15T00:23:01.363Z,1021.04
2018-01-15T00:24:01.382Z,1021.06
2018-01-15T00:25:01.385Z,1021.05
2018-01-15T00:26:01.397Z,1021.05
2018-01-15T00:27:01.410Z,1020.99
2018-01-15T00:28:01.420Z,1020.95
2018-01-15T00:29:01.432Z,1020.95
2018-01-15T00:30:01.449Z,1020.89
2018-01-15T00:31:01.460Z,1020.95
2018-01-15T00:32:01.470Z,1020.93
2018-01-15T00:33:01.483Z,1020.94
2018-01-15T00:34:01.486Z,1020.94
2018-01-15T00:35:01.499Z,1020.9
2018-01-15T00:36:01.516Z,1020.91
2018-01-15T00:37:01.521Z,1020.91
2018-01-15T00:38:01.532Z,1020.91
2018-01-15T00:39:01.549Z,1020.94
2018-01-15T00:41:01.566Z,1020.85
2018-01-15T00:42:01.583Z,1020.91
2018-01-15T00:43:01.594Z,1020.95
2018-01-15T00:44:01.599Z,1021.01
2018-01-15T00:45:01.617Z,1021.03
2018-01-15T00:46:01.622Z,1020.95
2018-01-15T00:47:01.633Z,1020.93
2018-01-15T00:48:01.644Z,1020.93
2018-01-15T00:49:01.662Z,1020.95
2018-01-15T00:50:01.666Z,1020.95
2018-01-15T00:51:01.678Z,1020.98
2018-01-15T00:52:01.696Z,1020.92
2018-01-15T00:53:01.701Z,1020.9
2018-01-15T00:54:01.710Z,1020.84
2018-01-15T00:55:01.730Z,1020.87
2018-01-15T00:57:01.746Z,1020.83
2018-01-15T00:58:01.756Z,1020.81
2018-01-15T00:59:01.768Z,1020.74
2018-01-15T01:00:01.786Z,1020.71
2018-01-15T01:01:01.789Z,1020.7
2018-01-15T01:02:01.848Z,1020.66
2018-01-15T01:03:01.812Z,1020.67
2018-01-15T01:04:01.824Z,1020.7
2018-01-15T01:05:01.835Z,1020.65
2018-01-15T01:06:01.846Z,1020.69
2018-01-15T01:07:01.864Z,1020.67
2018-01-15T01:08:01.869Z,1020.65
2018-01-15T01:09:01.887Z,1020.68
2018-01-15T01:10:01.892Z,1020.69
2018-01-15T01:11:01.902Z,1020.59
2018-01-15T01:13:01.925Z,1020.59
2018-01-15T01:14:01.936Z,1020.53
2018-01-15T01:15:01.948Z,1020.55
2018-01-15T01:16:01.959Z,1020.5
2018-01-15T01:17:01.969Z,1020.41
2018-01-15T01:18:01.982Z,1020.45
2018-01-15T01:19:02.000Z,1020.47
2018-01-15T01:20:02.003Z,1020.41
2018-01-15T01:21:02.022Z,1020.45
2018-01-15T01:22:02.026Z,1020.46
2018-01-15T01:23:02.042Z,1020.46
2018-01-15T01:24:02.049Z,1020.43
2018-01-15T01:25:02.060Z,1020.41
2018-01-15T01:26:02.071Z,1020.42
2018-01-15T01:27:02.089Z,1020.39
2018-01-15T01:29:02.105Z,1020.4
2018-01-15T01:30:02.116Z,1020.29
2018-01-15T01:31:02.128Z,1020.31
2018-01-15T01:32:02.139Z,1020.32
2018-01-15T01:33:02.152Z,1020.27
2018-01-15T01:34:02.162Z,1020.3
2018-01-15T01:35:02.179Z,1020.26
2018-01-15T01:36:02.191Z,1020.24
2018-01-15T01:37:02.195Z,1020.2
2018-01-15T01:38:02.206Z,1020.17
2018-01-15T01:39:02.225Z,1020.19
2018-01-15T01:40:02.236Z,1020.15
2018-01-15T01:41:02.245Z,1020.09
2018-01-15T01:42:02.253Z,1020.09
2018-01-15T01:44:02.287Z,1019.99
2018-01-15T01:45:02.295Z,1019.95
2018-01-15T01:46:02.306Z,1019.98
2018-01-15T01:47:02.309Z,1019.97
2018-01-15T01:48:02.328Z,1019.97
2018-01-15T01:49:02.331Z,1019.89
2018-01-15T01:50:02.343Z,1019.96
2018-01-15T01:51:02.361Z,1019.91
2018-01-15T01:52:02.373Z,1019.9
2018-01-15T01:53:02.377Z,1019.9
2018-01-15T01:54:02.392Z,1019.86
2018-01-15T01:55:02.399Z,1019.8
2018-01-15T01:56:02.411Z,1019.82
2018-01-15T01:57:02.422Z,1019.77
2018-01-15T01:58:02.434Z,1019.77
2018-01-15T01:59:02.445Z,1019.76
2018-01-15T02:00:02.455Z,1019.76
2018-01-15T02:01:02.467Z,1019.77
2018-01-15T02:02:02.478Z,1019.75
2018-01-15T02:03:02.489Z,1019.66
2018-01-15T02:04:02.502Z,1019.72
2018-01-15T02:05:02.518Z,1019.67
2018-01-15T02:06:02.530Z,1019.67
2018-01-15T02:07:02.534Z,1019.59
2018-01-15T02:08:02.546Z,1019.59
2018-01-15T02:09:02.559Z,1019.56
2018-01-15T02:10:02.575Z,1019.56
2018-01-15T02:11:02.587Z,1019.53
2018-01-15T02:12:02.598Z,1019.5
2018-01-15T02:13:02.603Z,1019.51
2018-01-15T02:14:02.713Z,1019.5
2018-01-15T02:16:02.636Z,1019.48
2018-01-15T02:17:02.655Z,1019.5
2018-01-15T02:18:02.665Z,1019.42
2018-01-15T02:19:02.671Z,1019.45
2018-01-15T02:20:02.688Z,1019.42
2018-01-15T02:21:02.694Z,1019.43
2018-01-15T02:22:02.703Z,1019.43
2018-01-15T02:23:02.715Z,1019.36
2018-01-15T02:24:02.733Z,1019.37
2018-01-15T02:25:02.737Z,1019.31
2018-01-15T02:26:02.756Z,1019.29
2018-01-15T02:27:02.760Z,1019.31
2018-01-15T02:28:02.771Z,1019.3
2018-01-15T02:29:02.791Z,1019.23
2018-01-15T02:30:02.793Z,1019.22
2018-01-15T02:32:02.817Z,1019.15
2018-01-15T02:33:02.827Z,1019.14
2018-01-15T02:34:02.839Z,1019.18
2018-01-15T02:35:02.850Z,1019.13
2018-01-15T02:36:02.862Z,1019.19
2018-01-15T02:37:02.871Z,1019.13
2018-01-15T02:38:02.891Z,1019.08
2018-01-15T02:39:02.902Z,1019.13
2018-01-15T02:40:02.907Z,1019.15
2018-01-15T02:41:02.917Z,1019.12
2018-01-15T02:42:02.935Z,1019.03
2018-01-15T02:43:02.942Z,1019.1
2018-01-15T02:44:02.950Z,1019.09
2018-01-15T02:45:02.963Z,1019.07
2018-01-15T02:46:02.981Z,1019.05
2018-01-15T02:48:02.997Z,1018.99
2018-01-15T02:49:03.007Z,1019
2018-01-15T02:50:03.025Z,1018.94
2018-01-15T02:51:03.029Z,1018.95
2018-01-15T02:52:03.049Z,1018.89
2018-01-15T02:53:03.054Z,1018.88
2018-01-15T02:54:03.065Z,1018.91
2018-01-15T02:55:03.074Z,1018.92
2018-01-15T02:56:03.086Z,1018.87
2018-01-15T02:57:03.105Z,1018.91
2018-01-15T02:58:03.107Z,1018.81
2018-01-15T02:59:03.121Z,1018.77
2018-01-15T03:00:03.131Z,1018.85
2018-01-15T03:01:03.144Z,1018.83
2018-01-15T03:02:03.159Z,1018.84
2018-01-15T03:04:03.177Z,1018.78
2018-01-15T03:05:03.188Z,1018.7
2018-01-15T03:06:03.198Z,1018.76
2018-01-15T03:07:03.217Z,1018.65
2018-01-15T03:08:03.229Z,1018.69
2018-01-15T03:09:03.239Z,1018.67
2018-01-15T03:10:03.244Z,1018.66
2018-01-15T03:11:03.262Z,1018.61
2018-01-15T03:12:03.276Z,1018.63
2018-01-15T03:13:03.284Z,1018.62
2018-01-15T03:14:03.290Z,1018.63
2018-01-15T03:15:03.301Z,1018.63
2018-01-15T03:16:03.313Z,1018.64
2018-01-15T03:17:03.325Z,1018.6
2018-01-15T03:19:03.348Z,1018.61
2018-01-15T03:20:03.365Z,1018.63
2018-01-15T03:21:03.369Z,1018.67
2018-01-15T03:22:03.383Z,1018.57
2018-01-15T03:23:03.393Z,1018.58
2018-01-15T03:24:03.403Z,1018.53
2018-01-15T03:25:03.414Z,1018.51
2018-01-15T03:26:03.438Z,1018.5
2018-01-15T03:27:03.437Z,1018.49
2018-01-15T03:28:03.455Z,1018.47
2018-01-15T03:29:03.460Z,1018.38
2018-01-15T03:30:03.476Z,1018.36
2018-01-15T03:31:03.484Z,1018.33
2018-01-15T03:32:03.494Z,1018.31
2018-01-15T03:33:03.513Z,1018.29
2018-01-15T03:34:03.517Z,1018.26
2018-01-15T03:35:03.535Z,1018.25
2018-01-15T03:36:03.539Z,1018.23
2018-01-15T03:37:03.558Z,1018.23
2018-01-15T03:38:03.561Z,1018.18
2018-01-15T03:39:03.573Z,1018.25
2018-01-15T03:40:03.584Z,1018.19
2018-01-15T03:41:03.597Z,1018.19
2018-01-15T03:42:03.607Z,1018.21
2018-01-15T03:43:03.618Z,1018.18
2018-01-15T03:44:03.636Z,1018.16
2018-01-15T03:45:03.641Z,1018.12
2018-01-15T03:46:03.658Z,1018.16
2018-01-15T03:47:03.663Z,1018.15
2018-01-15T03:48:03.683Z,1018.15
2018-01-15T03:49:03.693Z,1018.18
2018-01-15T03:51:03.710Z,1018.09
2018-01-15T03:52:03.720Z,1018.05
2018-01-15T03:53:03.738Z,1018.03
2018-01-15T03:54:03.750Z,1018.03
2018-01-15T03:55:03.761Z,1018.04
2018-01-15T03:56:03.774Z,1018.03
2018-01-15T03:57:03.784Z,1018.05
2018-01-15T03:58:03.789Z,1018.03
2018-01-15T03:59:03.802Z,1018
2018-01-15T04:00:03.811Z,1017.99
2018-01-15T04:01:03.822Z,1017.98
2018-01-15T04:02:03.834Z,1017.95
2018-01-15T04:03:03.846Z,1017.88
2018-01-15T04:04:03.860Z,1017.88
2018-01-15T04:05:03.869Z,1017.86
2018-01-15T04:07:03.898Z,1017.81
2018-01-15T04:08:03.910Z,1017.83
2018-01-15T04:09:03.918Z,1017.83
2018-01-15T04:10:03.925Z,1017.8
2018-01-15T04:11:03.941Z,1017.77
2018-01-15T04:12:03.947Z,1017.8
2018-01-15T04:13:03.958Z,1017.77
2018-01-15T04:14:03.977Z,1017.72
2018-01-15T04:15:03.988Z,1017.72
2018-01-15T04:16:03.993Z,1017.7
2018-01-15T04:17:04.011Z,1017.71
2018-01-15T04:18:04.016Z,1017.68
2018-01-15T04:19:04.027Z,1017.68
2018-01-15T04:20:04.042Z,1017.67
2018-01-15T04:21:04.049Z,1017.59
2018-01-15T04:23:04.079Z,1017.66
2018-01-15T04:24:04.083Z,1017.68
2018-01-15T04:25:04.095Z,1017.63
2018-01-15T04:26:04.107Z,1017.6
2018-01-15T04:27:04.118Z,1017.6
2018-01-15T04:28:04.135Z,1017.61
2018-01-15T04:29:04.146Z,1017.59
2018-01-15T04:30:04.151Z,1017.6
2018-01-15T04:31:04.170Z,1017.56
2018-01-15T04:32:04.179Z,1017.58
2018-01-15T04:33:04.186Z,1017.61
2018-01-15T04:34:04.197Z,1017.53
2018-01-15T04:35:04.261Z,1017.45
2018-01-15T04:36:04.220Z,1017.47
2018-01-15T04:37:04.232Z,1017.41
2018-01-15T04:39:04.255Z,1017.38
2018-01-15T04:40:04.266Z,1017.31
2018-01-15T04:41:04.276Z,1017.32
2018-01-15T04:42:04.339Z,1017.32
2018-01-15T04:43:04.299Z,1017.26
2018-01-15T04:44:04.318Z,1017.34
2018-01-15T04:45:04.329Z,1017.26
2018-01-15T04:46:04.334Z,1017.29
2018-01-15T04:47:04.347Z,1017.29
2018-01-15T04:48:04.356Z,1017.3
2018-01-15T04:49:04.367Z,1017.31
2018-01-15T04:50:04.380Z,1017.29
2018-01-15T04:51:04.392Z,1017.24
2018-01-15T04:52:04.403Z,1017.24
2018-01-15T04:54:04.427Z,1017.21
2018-01-15T04:55:04.443Z,1017.16
2018-01-15T04:56:04.456Z,1017.14
2018-01-15T04:57:04.471Z,1017.17
2018-01-15T04:58:04.476Z,1017.11
2018-01-15T04:59:04.485Z,1017.03
2018-01-15T05:00:04.498Z,1017.06
2018-01-15T05:01:04.512Z,1017.08
2018-01-15T05:02:04.518Z,1017.02
2018-01-15T05:03:04.529Z,1017.07
2018-01-15T05:04:04.542Z,1017.03
2018-01-15T05:05:04.560Z,1017.08
2018-01-15T05:06:04.563Z,1017
2018-01-15T05:07:04.579Z,1016.98
2018-01-15T05:08:04.594Z,1016.97
2018-01-15T05:09:04.605Z,1016.99
2018-01-15T05:10:04.611Z,1016.94
2018-01-15T05:11:04.621Z,1016.91
2018-01-15T05:12:04.640Z,1016.93
2018-01-15T05:13:04.650Z,1016.93
2018-01-15T05:14:04.662Z,1016.86
2018-01-15T05:15:04.675Z,1016.85
2018-01-15T05:16:04.680Z,1016.9
2018-01-15T05:17:04.697Z,1016.82
2018-01-15T05:18:04.709Z,1016.79
2018-01-15T05:19:04.721Z,1016.78
2018-01-15T05:20:04.725Z,1016.79
2018-01-15T05:21:04.742Z,1016.79
2018-01-15T05:22:04.747Z,1016.76
2018-01-15T05:23:04.759Z,1016.77
2018-01-15T05:24:04.770Z,1016.75
2018-01-15T05:26:04.794Z,1016.75
2018-01-15T05:27:04.812Z,1016.71
2018-01-15T05:28:04.825Z,1016.74
2018-01-15T05:29:04.832Z,1016.75
2018-01-15T05:30:04.841Z,1016.76
2018-01-15T05:31:04.853Z,1016.79
2018-01-15T05:32:04.870Z,1016.73
2018-01-15T05:33:04.881Z,1016.74
2018-01-15T05:34:04.886Z,1016.69
2018-01-15T05:35:04.898Z,1016.73
2018-01-15T05:36:04.913Z,1016.63
2018-01-15T05:37:04.928Z,1016.67
2018-01-15T05:38:05.034Z,1016.63
2018-01-15T05:39:04.944Z,1016.69
2018-01-15T05:40:04.962Z,1016.61
2018-01-15T05:42:04.979Z,1016.58
2018-01-15T05:43:04.991Z,1016.6
2018-01-15T05:44:05.009Z,1016.58
2018-01-15T05:45:05.015Z,1016.53
2018-01-15T05:46:05.026Z,1016.55
2018-01-15T05:47:05.038Z,1016.54
2018-01-15T05:48:05.048Z,1016.5
2018-01-15T05:49:05.061Z,1016.47
2018-01-15T05:50:05.072Z,1016.45
2018-01-15T05:51:05.082Z,1016.47
2018-01-15T05:52:05.095Z,1016.51
2018-01-15T05:53:05.106Z,1016.54
2018-01-15T05:54:05.117Z,1016.49
2018-01-15T05:55:05.129Z,1016.44
2018-01-15T05:56:05.148Z,1016.5
2018-01-15T05:58:05.171Z,1016.43
2018-01-15T05:59:05.175Z,1016.44
2018-01-15T06:00:05.194Z,1016.41
2018-01-15T06:01:05.206Z,1016.39
2018-01-15T06:02:05.211Z,1016.41
2018-01-15T06:03:05.222Z,1016.41
2018-01-15T06:04:05.236Z,1016.41
2018-01-15T06:05:05.246Z,1016.4
2018-01-15T06:06:05.258Z,1016.39
2018-01-15T06:07:05.271Z,1016.39
2018-01-15T06:08:05.280Z,1016.36
2018-01-15T06:09:05.299Z,1016.4
2018-01-15T06:10:05.305Z,1016.35
2018-01-15T06:11:05.316Z,1016.4
2018-01-15T06:12:05.328Z,1016.37
2018-01-15T06:14:05.352Z,1016.34
2018-01-15T06:15:05.370Z,1016.38
2018-01-15T06:16:05.380Z,1016.36
2018-01-15T06:17:05.393Z,1016.36
2018-01-15T06:18:05.398Z,1016.22
2018-01-15T06:19:05.409Z,1016.26
2018-01-15T06:20:05.422Z,1016.34
2018-01-15T06:21:05.440Z,1016.29
2018-01-15T06:22:05.445Z,1016.27
2018-01-15T06:23:05.464Z,1016.22
2018-01-15T06:24:05.470Z,1016.26
2018-01-15T06:25:05.487Z,1016.29
2018-01-15T06:26:05.496Z,1016.23
2018-01-15T06:27:05.510Z,1016.25
2018-01-15T06:29:05.528Z,1016.23
2018-01-15T06:30:05.546Z,1016.17
2018-01-15T06:31:05.558Z,1016.16
2018-01-15T06:32:05.563Z,1016.14
2018-01-15T06:33:05.576Z,1016.1
2018-01-15T06:34:05.593Z,1016.07
2018-01-15T06:35:05.598Z,1016.12
2018-01-15T06:36:05.616Z,1016.12
2018-01-15T06:37:05.631Z,1016.16
2018-01-15T06:38:05.637Z,1016.13
2018-01-15T06:39:05.645Z,1016.12
2018-01-15T06:40:05.659Z,1016.13
2018-01-15T06:41:05.675Z,1016.13
2018-01-15T06:42:05.681Z,1016.13
2018-01-15T06:43:05.692Z,1016.17
2018-01-15T06:44:05.705Z,1016.1
2018-01-15T06:45:05.730Z,1016.12
2018-01-15T06:46:05.739Z,1016.09
2018-01-15T06:47:05.746Z,1016.04
2018-01-15T06:48:05.750Z,1016.07
2018-01-15T06:49:05.764Z,1015.98
2018-01-15T06:50:05.779Z,1016
2018-01-15T06:51:05.787Z,1016
2018-01-15T06:52:05.797Z,1015.95
2018-01-15T06:53:05.810Z,1016.02
2018-01-15T06:54:05.822Z,1015.95
2018-01-15T06:55:05.839Z,1016
2018-01-15T06:56:05.843Z,1016.01
2018-01-15T06:57:05.856Z,1016.03
2018-01-15T06:58:05.868Z,1015.98
2018-01-15T06:59:05.886Z,1016.03
2018-01-15T07:01:05.903Z,1015.89
2018-01-15T07:02:05.921Z,1015.88
2018-01-15T07:03:05.925Z,1015.86
2018-01-15T07:04:05.938Z,1015.9
2018-01-15T07:05:05.950Z,1015.89
2018-01-15T07:06:05.968Z,1015.86
2018-01-15T07:07:05.971Z,1015.83
2018-01-15T07:08:05.983Z,1015.87
2018-01-15T07:09:06.003Z,1015.87
2018-01-15T07:10:06.006Z,1015.87
2018-01-15T07:11:06.019Z,1015.86
2018-01-15T07:12:06.037Z,1015.85
2018-01-15T07:13:06.041Z,1015.87
2018-01-15T07:14:06.058Z,1015.9
2018-01-15T07:15:06.064Z,1015.91
2018-01-15T07:17:06.088Z,1015.84
2018-01-15T07:18:06.098Z,1015.86
2018-01-15T07:19:06.111Z,1015.84
2018-01-15T07:20:06.123Z,1015.8
2018-01-15T07:21:06.141Z,1015.7
2018-01-15T07:22:06.150Z,1015.73
2018-01-15T07:23:06.163Z,1015.72
2018-01-15T07:24:06.169Z,1015.72
2018-01-15T07:25:06.178Z,1015.69
2018-01-15T07:26:06.198Z,1015.68
2018-01-15T07:27:06.211Z,1015.63
2018-01-15T07:28:06.220Z,1015.63
2018-01-15T07:29:06.232Z,1015.61
2018-01-15T07:30:06.236Z,1015.57
2018-01-15T07:31:06.249Z,1015.56
2018-01-15T07:33:06.271Z,1015.54
2018-01-15T07:34:06.283Z,1015.54
2018-01-15T07:35:06.300Z,1015.53
2018-01-15T07:36:06.311Z,1015.48
2018-01-15T07:37:06.322Z,1015.5
2018-01-15T07:38:06.330Z,1015.5
2018-01-15T07:39:06.345Z,1015.47
2018-01-15T07:40:06.357Z,1015.46
2018-01-15T07:41:06.362Z,1015.51
2018-01-15T07:42:06.381Z,1015.5
2018-01-15T07:43:06.391Z,1015.47
2018-01-15T07:44:06.396Z,1015.47
2018-01-15T07:45:06.415Z,1015.49
2018-01-15T07:46:06.425Z,1015.51
2018-01-15T07:47:06.430Z,1015.44
2018-01-15T07:49:06.461Z,1015.41
2018-01-15T07:50:06.472Z,1015.42
2018-01-15T07:51:06.476Z,1015.42
2018-01-15T07:52:06.487Z,1015.45
2018-01-15T07:53:06.505Z,1015.42
2018-01-15T07:54:06.509Z,1015.43
2018-01-15T07:55:06.522Z,1015.46
2018-01-15T07:56:06.540Z,1015.41
2018-01-15T07:57:06.552Z,1015.41
2018-01-15T07:58:06.556Z,1015.42
2018-01-15T07:59:06.573Z,1015.43
2018-01-15T08:00:06.580Z,1015.36
2018-01-15T08:01:06.598Z,1015.36
2018-01-15T08:02:06.604Z,1015.34
2018-01-15T08:04:06.634Z,1015.31
2018-01-15T08:05:06.644Z,1015.28
2018-01-15T08:06:06.655Z,1015.28
2018-01-15T08:07:06.661Z,1015.27
2018-01-15T08:08:06.674Z,1015.25
2018-01-15T08:09:06.691Z,1015.19
2018-01-15T08:10:06.702Z,1015.13
2018-01-15T08:11:06.708Z,1015.1
2018-01-15T08:12:06.718Z,1015.1
2018-01-15T08:13:06.730Z,1015.05
2018-01-15T08:14:06.742Z,1015.1
2018-01-15T08:15:06.761Z,1015.07
2018-01-15T08:16:06.780Z,1014.96
2018-01-15T08:17:06.784Z,1015.02
2018-01-15T08:18:06.795Z,1014.98
2018-01-15T08:19:06.802Z,1014.92
2018-01-15T08:20:06.811Z,1014.95
2018-01-15T08:21:06.824Z,1014.92
2018-01-15T08:22:06.835Z,1014.91
2018-01-15T08:23:06.847Z,1014.94
2018-01-15T08:24:06.861Z,1014.97
2018-01-15T08:25:06.878Z,1014.87
2018-01-15T08:26:06.882Z,1014.9
2018-01-15T08:27:06.894Z,1014.92
2018-01-15T08:28:06.906Z,1014.94
2018-01-15T08:29:06.917Z,1014.93
2018-01-15T08:30:06.931Z,1014.9
2018-01-15T08:31:06.943Z,1014.89
2018-01-15T08:32:06.954Z,1014.88
2018-01-15T08:33:06.974Z,1014.79
2018-01-15T08:34:06.975Z,1014.78
2018-01-15T08:36:07.006Z,1014.79
2018-01-15T08:37:07.013Z,1014.79
2018-01-15T08:38:07.023Z,1014.8
2018-01-15T08:39:07.042Z,1014.77
2018-01-15T08:40:07.056Z,1014.82
2018-01-15T08:41:07.060Z,1014.77
2018-01-15T08:42:07.078Z,1014.73
2018-01-15T08:43:07.083Z,1014.74
2018-01-15T08:44:07.096Z,1014.75
2018-01-15T08:45:07.117Z,1014.66
2018-01-15T08:46:07.119Z,1014.67
2018-01-15T08:47:07.131Z,1014.65
2018-01-15T08:48:07.143Z,1014.64
2018-01-15T08:49:07.162Z,1014.61
2018-01-15T08:50:07.169Z,1014.63
2018-01-15T08:52:07.192Z,1014.55
2018-01-15T08:53:07.211Z,1014.6
2018-01-15T08:54:07.216Z,1014.54
2018-01-15T08:55:07.230Z,1014.58
2018-01-15T08:56:07.240Z,1014.53
2018-01-15T08:57:07.260Z,1014.49
2018-01-15T08:58:07.273Z,1014.44
2018-01-15T08:59:07.285Z,1014.52
2018-01-15T09:00:07.289Z,1014.51
2018-01-15T09:01:07.348Z,1014.41
2018-01-15T09:02:07.322Z,1014.46
2018-01-15T09:03:07.327Z,1014.54
2018-01-15T09:04:07.340Z,1014.38
2018-01-15T09:05:07.352Z,1014.41
2018-01-15T09:06:07.371Z,1014.35
2018-01-15T09:08:07.396Z,1014.45
2018-01-15T09:09:07.403Z,1014.43
2018-01-15T09:10:07.415Z,1014.45
2018-01-15T09:11:07.432Z,1014.41
2018-01-15T09:12:07.440Z,1014.33
2018-01-15T09:13:07.453Z,1014.33
2018-01-15T09:14:07.465Z,1014.36
2018-01-15T09:15:07.483Z,1014.3
2018-01-15T09:16:07.495Z,1014.26
2018-01-15T09:17:07.503Z,1014.33
2018-01-15T09:18:07.514Z,1014.34
2018-01-15T09:19:07.533Z,1014.29
2018-01-15T09:20:07.542Z,1014.23
2018-01-15T09:21:07.553Z,1014.13
2018-01-15T09:22:07.564Z,1014.1
2018-01-15T09:24:07.591Z,1014.12
2018-01-15T09:25:07.605Z,1014.04
2018-01-15T09:26:07.622Z,1014.08
2018-01-15T09:27:07.629Z,1014.04
2018-01-15T09:28:07.643Z,1014.02
2018-01-15T09:29:07.655Z,1014.06
2018-01-15T09:30:07.668Z,1013.96
2018-01-15T09:31:07.681Z,1014.02
2018-01-15T09:32:07.700Z,1014.04
2018-01-15T09:33:07.712Z,1013.97
2018-01-15T09:34:07.726Z,1014.02
2018-01-15T09:35:07.739Z,1013.9
2018-01-15T09:36:07.746Z,1013.9
2018-01-15T09:37:07.766Z,1013.93
2018-01-15T09:39:07.785Z,1013.92
2018-01-15T09:40:07.796Z,1013.89
2018-01-15T09:41:07.810Z,1013.95
2018-01-15T09:42:07.830Z,1013.8
2018-01-15T09:43:07.837Z,1013.9
2018-01-15T09:44:07.849Z,1013.88
2018-01-15T09:45:07.863Z,1013.89
2018-01-15T09:46:07.900Z,1013.85
2018-01-15T09:47:07.888Z,1013.87
2018-01-15T09:48:07.908Z,1013.89
2018-01-15T09:49:07.921Z,1013.87
2018-01-15T09:50:07.929Z,1013.89
2018-01-15T09:51:07.948Z,1013.81
2018-01-15T09:52:07.970Z,1013.87
2018-01-15T09:53:07.967Z,1013.76
2018-01-15T09:54:07.982Z,1013.77
2018-01-15T09:55:07.996Z,1013.8
2018-01-15T09:56:08.007Z,1013.74
2018-01-15T09:57:08.028Z,1013.73
2018-01-15T09:58:08.040Z,1013.76
2018-01-15T09:59:08.048Z,1013.63
2018-01-15T10:00:08.061Z,1013.67
2018-01-15T10:01:08.073Z,1013.61
2018-01-15T10:02:08.086Z,1013.59
2018-01-15T10:03:08.100Z,1013.54
2018-01-15T10:04:08.112Z,1013.51
2018-01-15T10:05:08.133Z,1013.49
2018-01-15T10:06:08.140Z,1013.54
2018-01-15T10:07:08.160Z,1013.48
2018-01-15T10:08:08.174Z,1013.42
2018-01-15T10:09:08.180Z,1013.45
2018-01-15T10:11:08.212Z,1013.37
2018-01-15T10:12:08.222Z,1013.37
2018-01-15T10:13:08.239Z,1013.28
2018-01-15T10:14:08.252Z,1013.27
2018-01-15T10:15:08.260Z,1013.29
2018-01-15T10:16:08.274Z,1013.24
2018-01-15T10:17:08.287Z,1013.2
2018-01-15T10:18:08.306Z,1013.2
2018-01-15T10:19:08.315Z,1013.14
2018-01-15T10:20:08.329Z,1013.06
2018-01-15T10:21:08.348Z,1013.13
2018-01-15T10:22:08.355Z,1013.08
2018-01-15T10:23:08.369Z,1013.02
2018-01-15T10:24:08.381Z,1013.04
2018-01-15T10:25:08.396Z,1013
2018-01-15T10:27:08.423Z,1012.98
2018-01-15T10:28:08.442Z,1012.98
2018-01-15T10:29:08.450Z,1012.92
2018-01-15T10:30:08.467Z,1012.92
2018-01-15T10:31:08.476Z,1012.92
2018-01-15T10:32:08.489Z,1012.86
2018-01-15T10:33:08.504Z,1012.84
2018-01-15T10:34:08.518Z,1012.81
2018-01-15T10:35:08.530Z,1012.79
2018-01-15T10:36:08.544Z,1012.7
2018-01-15T10:37:08.558Z,1012.67
2018-01-15T10:38:08.572Z,1012.61
2018-01-15T10:39:08.599Z,1012.62
2018-01-15T10:40:08.600Z,1012.6
2018-01-15T10:41:08.619Z,1012.6
2018-01-15T10:43:08.639Z,1012.53
2018-01-15T10:44:08.652Z,1012.51
2018-01-15T10:45:08.667Z,1012.55
2018-01-15T10:46:08.679Z,1012.54
2018-01-15T10:47:08.694Z,1012.51
2018-01-15T10:48:08.708Z,1012.39
2018-01-15T10:49:08.773Z,1012.42
2018-01-15T10:50:08.741Z,1012.46
2018-01-15T10:51:08.755Z,1012.32
2018-01-15T10:52:08.762Z,1012.37
2018-01-15T10:53:08.782Z,1012.27
2018-01-15T10:54:08.789Z,1012.32
2018-01-15T10:55:08.810Z,1012.27
2018-01-15T10:56:08.824Z,1012.2
2018-01-15T10:57:08.836Z,1012.19
2018-01-15T10:59:08.857Z,1012.16
2018-01-15T11:00:08.880Z,1012.11
2018-01-15T11:01:08.886Z,1012.06
2018-01-15T11:02:08.911Z,1012.01
2018-01-15T11:03:08.920Z,1011.96
2018-01-15T11:04:08.927Z,1011.97
2018-01-15T11:05:08.946Z,1011.89
2018-01-15T11:06:08.961Z,1011.87
2018-01-15T11:07:08.969Z,1011.85
2018-01-15T11:08:08.988Z,1011.84
2018-01-15T11:09:08.997Z,1011.82
2018-01-15T11:10:09.009Z,1011.76
2018-01-15T11:11:09.031Z,1011.74
2018-01-15T11:12:09.082Z,1011.74
2018-01-15T11:14:09.073Z,1011.68
2018-01-15T11:15:09.080Z,1011.68
2018-01-15T11:16:09.093Z,1011.63
2018-01-15T11:17:09.107Z,1011.56
2018-01-15T11:18:09.134Z,1011.58
2018-01-15T11:19:09.135Z,1011.52
2018-01-15T11:20:09.155Z,1011.55
2018-01-15T11:21:09.163Z,1011.54
2018-01-15T11:22:09.176Z,1011.47
2018-01-15T11:23:09.197Z,1011.55
2018-01-15T11:24:09.224Z,1011.45
2018-01-15T11:25:09.218Z,1011.53
2018-01-15T11:26:09.233Z,1011.48
2018-01-15T11:27:09.252Z,1011.48
2018-01-15T11:28:09.261Z,1011.41
2018-01-15T11:29:09.280Z,1011.41
2018-01-15T11:30:09.287Z,1011.39
2018-01-15T11:31:09.309Z,1011.25
2018-01-15T11:32:09.324Z,1011.25
2018-01-15T11:33:09.330Z,1011.22
2018-01-15T11:34:09.344Z,1011.2
2018-01-15T11:35:09.360Z,1011.19
2018-01-15T11:36:09.377Z,1011.19
2018-01-15T11:37:09.387Z,1011.12
2018-01-15T11:38:09.400Z,1011.12
2018-01-15T11:39:09.424Z,1011.17
2018-01-15T11:40:09.429Z,1011.1
2018-01-15T11:41:09.442Z,1011.08
2018-01-15T11:42:09.464Z,1011.01
2018-01-15T11:43:09.479Z,1011
2018-01-15T11:44:09.492Z,1011.01
2018-01-15T11:46:09.513Z,1010.84
2018-01-15T11:47:09.528Z,1010.79
2018-01-15T11:48:09.548Z,1010.8
2018-01-15T11:49:09.557Z,1010.77
2018-01-15T11:50:09.571Z,1010.75
2018-01-15T11:51:09.593Z,1010.82
2018-01-15T11:52:09.601Z,1010.74
2018-01-15T11:53:09.615Z,1010.6
2018-01-15T11:54:09.627Z,1010.68
2018-01-15T11:55:09.647Z,1010.67
2018-01-15T11:56:09.657Z,1010.63
2018-01-15T11:57:09.677Z,1010.59
2018-01-15T11:58:09.684Z,1010.59
2018-01-15T11:59:09.698Z,1010.58
2018-01-15T12:00:09.720Z,1010.57
2018-01-15T12:02:09.749Z,1010.51
2018-01-15T12:03:09.756Z,1010.48
2018-01-15T12:04:09.771Z,1010.42
2018-01-15T12:05:09.792Z,1010.37
2018-01-15T12:06:09.799Z,1010.32
2018-01-15T12:07:09.815Z,1010.31
2018-01-15T12:08:09.828Z,1010.26
2018-01-15T12:09:09.849Z,1010.29
2018-01-15T12:10:09.857Z,1010.26
2018-01-15T12:11:09.871Z,1010.3
2018-01-15T12:12:09.886Z,1010.27
2018-01-15T12:13:09.907Z,1010.31
2018-01-15T12:14:09.919Z,1010.37
2018-01-15T12:15:09.930Z,1010.35
2018-01-15T12:16:09.954Z,1010.35
2018-01-15T12:18:09.972Z,1010.25
2018-01-15T12:19:09.987Z,1010.18
2018-01-15T12:20:10.002Z,1010.16
2018-01-15T12:21:10.022Z,1010.05
2018-01-15T12:22:10.037Z,1010.05
2018-01-15T12:23:10.045Z,1009.99
2018-01-15T12:24:10.065Z,1009.99
2018-01-15T12:25:10.074Z,1009.96
2018-01-15T12:26:10.095Z,1009.92
2018-01-15T12:27:10.102Z,1009.86
2018-01-15T12:28:10.122Z,1009.82
2018-01-15T12:29:10.137Z,1009.74
2018-01-15T12:30:10.153Z,1009.71
2018-01-15T12:31:10.160Z,1009.76
2018-01-15T12:32:10.175Z,1009.53
2018-01-15T12:34:10.205Z,1009.71
2018-01-15T12:35:10.219Z,1009.69
2018-01-15T12:36:10.233Z,1009.66
2018-01-15T12:37:10.354Z,1009.61
2018-01-15T12:38:10.262Z,1009.51
2018-01-15T12:39:10.276Z,1009.51
2018-01-15T12:40:10.299Z,1009.41
2018-01-15T12:41:10.312Z,1009.42
2018-01-15T12:42:10.320Z,1009.32
2018-01-15T12:43:10.335Z,1009.31
2018-01-15T12:44:10.394Z,1009.32
2018-01-15T12:45:10.364Z,1009.33
2018-01-15T12:46:10.378Z,1009.32
2018-01-15T12:47:10.394Z,1009.33
2018-01-15T12:49:10.424Z,1009.28